HZA42 OEJN-OEMA
Flight info
| Callsign | HZA42 |
|---|---|
| Flight time | 0h 38m |
| Altitude | 33000 |
| Route | DATAP2W/34C DATAP A424 RULEB/N0481F320 A424 DEGVU |
| Aircraft | A346/H-SDE2E3FGHIJ3J4J5M1RWXY/LB1D1 |
Departure
| Time | 2026-04-29 20:11 |
|---|---|
| Airport | King Abdulaziz International Airport (OEJN) |
Arrival
| Time | 2026-04-29 20:50 |
|---|---|
| Airport | Prince Mohammad Bin Abdulaziz Airport (OEMA) |
| Time | Latitude | Longitude | Altitude | Speed | Heading |
|---|---|---|---|---|---|
| 2026-04-29 19:19 | 21.67175 | 39.13612 | 35 ft | 0 kts | 250° |
| 2026-04-29 19:56 | 21.67177 | 39.13616 | 35 ft | 3 kts | 251° |
| 2026-04-29 19:56 | 21.67184 | 39.13643 | 35 ft | 4 kts | 254° |
| 2026-04-29 19:56 | 21.67190 | 39.13660 | 35 ft | 4 kts | 220° |
| 2026-04-29 19:57 | 21.67207 | 39.13672 | 35 ft | 4 kts | 198° |
| 2026-04-29 19:57 | 21.67221 | 39.13675 | 35 ft | 4 kts | 176° |
| 2026-04-29 19:57 | 21.67253 | 39.13665 | 33 ft | 4 kts | 159° |
| 2026-04-29 19:57 | 21.67259 | 39.13662 | 35 ft | 0 kts | 160° |
| 2026-04-29 20:05 | 21.67257 | 39.13663 | 35 ft | 1 kts | 160° |
| 2026-04-29 20:05 | 21.67251 | 39.13665 | 34 ft | 2 kts | 159° |
| 2026-04-29 20:05 | 21.67212 | 39.13682 | 35 ft | 9 kts | 157° |
| 2026-04-29 20:06 | 21.67126 | 39.13716 | 35 ft | 15 kts | 160° |
| 2026-04-29 20:06 | 21.67043 | 39.13747 | 35 ft | 9 kts | 160° |
| 2026-04-29 20:06 | 21.67019 | 39.13764 | 35 ft | 4 kts | 112° |
| 2026-04-29 20:06 | 21.67021 | 39.13796 | 33 ft | 0 kts | 73° |
| 2026-04-29 20:09 | 21.67028 | 39.13822 | 33 ft | 9 kts | 73° |
| 2026-04-29 20:09 | 21.67049 | 39.13890 | 32 ft | 9 kts | 69° |
| 2026-04-29 20:09 | 21.67064 | 39.13930 | 33 ft | 5 kts | 69° |
| 2026-04-29 20:10 | 21.67075 | 39.13945 | 33 ft | 2 kts | 16° |
| 2026-04-29 20:10 | 21.67106 | 39.13939 | 33 ft | 6 kts | 341° |
| 2026-04-29 20:10 | 21.67111 | 39.13937 | 33 ft | 1 kts | 340° |
| 2026-04-29 20:10 | 21.67219 | 39.13895 | 35 ft | 51 kts | 340° |
| 2026-04-29 20:11 | 21.67805 | 39.13662 | 40 ft | 124 kts | 340° |
| 2026-04-29 20:11 | 21.68810 | 39.13265 | 60 ft | 180 kts | 339° |
| 2026-04-29 20:11 | 21.69985 | 39.12780 | 914 ft | 176 kts | 339° |
| 2026-04-29 20:11 | 21.71132 | 39.12303 | 1706 ft | 184 kts | 339° |
| 2026-04-29 20:12 | 21.72359 | 39.11784 | 2319 ft | 193 kts | 338° |
| 2026-04-29 20:12 | 21.73621 | 39.11229 | 2979 ft | 196 kts | 332° |
| 2026-04-29 20:12 | 21.74773 | 39.10411 | 3539 ft | 205 kts | 322° |
| 2026-04-29 20:12 | 21.75952 | 39.09442 | 4005 ft | 218 kts | 323° |
| 2026-04-29 20:13 | 21.77216 | 39.08529 | 4626 ft | 223 kts | 332° |
| 2026-04-29 20:13 | 21.78810 | 39.08306 | 4999 ft | 247 kts | 11° |
| 2026-04-29 20:13 | 21.80490 | 39.09011 | 5435 ft | 269 kts | 22° |
| 2026-04-29 20:13 | 21.82236 | 39.09891 | 6062 ft | 281 kts | 23° |
| 2026-04-29 20:14 | 21.84017 | 39.10780 | 6887 ft | 286 kts | 22° |
| 2026-04-29 20:14 | 21.85844 | 39.11669 | 7741 ft | 289 kts | 22° |
| 2026-04-29 20:14 | 21.87703 | 39.12552 | 8535 ft | 294 kts | 21° |
| 2026-04-29 20:14 | 21.89578 | 39.13430 | 9304 ft | 300 kts | 21° |
| 2026-04-29 20:15 | 21.91534 | 39.14338 | 10090 ft | 305 kts | 21° |
| 2026-04-29 20:15 | 21.93490 | 39.15243 | 10697 ft | 316 kts | 21° |
| 2026-04-29 20:15 | 21.95573 | 39.16202 | 11138 ft | 335 kts | 21° |
| 2026-04-29 20:15 | 21.97784 | 39.17216 | 11563 ft | 354 kts | 21° |
| 2026-04-29 20:16 | 22.00112 | 39.18285 | 11973 ft | 373 kts | 21° |
| 2026-04-29 20:16 | 22.02565 | 39.19410 | 12398 ft | 391 kts | 21° |
| 2026-04-29 20:16 | 22.05070 | 39.20562 | 13077 ft | 399 kts | 21° |
| 2026-04-29 20:16 | 22.07662 | 39.21759 | 13969 ft | 403 kts | 21° |
| 2026-04-29 20:17 | 22.10219 | 39.22939 | 14831 ft | 406 kts | 20° |
| 2026-04-29 20:17 | 22.12823 | 39.24140 | 15659 ft | 409 kts | 20° |
| 2026-04-29 20:17 | 22.15473 | 39.25360 | 16471 ft | 413 kts | 20° |
| 2026-04-29 20:17 | 22.18130 | 39.26584 | 17250 ft | 417 kts | 19° |
| 2026-04-29 20:18 | 22.20819 | 39.27823 | 17999 ft | 420 kts | 19° |
| 2026-04-29 20:18 | 22.23534 | 39.29073 | 18734 ft | 424 kts | 19° |
| 2026-04-29 20:18 | 22.26236 | 39.30318 | 19417 ft | 429 kts | 19° |
| 2026-04-29 20:18 | 22.29018 | 39.31598 | 20076 ft | 433 kts | 19° |
| 2026-04-29 20:19 | 22.31815 | 39.32887 | 20686 ft | 438 kts | 19° |
| 2026-04-29 20:19 | 22.34633 | 39.34187 | 20991 ft | 441 kts | 19° |
| 2026-04-29 20:19 | 22.37464 | 39.35494 | 21019 ft | 441 kts | 19° |
| 2026-04-29 20:19 | 22.40274 | 39.36795 | 21023 ft | 441 kts | 19° |
| 2026-04-29 20:20 | 22.43099 | 39.38102 | 21030 ft | 441 kts | 19° |
| 2026-04-29 20:20 | 22.45903 | 39.39399 | 21033 ft | 441 kts | 19° |
| 2026-04-29 20:20 | 22.48733 | 39.40708 | 21034 ft | 441 kts | 19° |
| 2026-04-29 20:20 | 22.51565 | 39.42019 | 21034 ft | 441 kts | 19° |
| 2026-04-29 20:21 | 22.54389 | 39.43328 | 21035 ft | 441 kts | 19° |
| 2026-04-29 20:21 | 22.57188 | 39.44625 | 21035 ft | 441 kts | 19° |
| 2026-04-29 20:21 | 22.60018 | 39.45938 | 21037 ft | 441 kts | 19° |
| 2026-04-29 20:21 | 22.62861 | 39.47257 | 21043 ft | 442 kts | 19° |
| 2026-04-29 20:22 | 22.65667 | 39.48531 | 21041 ft | 440 kts | 17° |
| 2026-04-29 20:22 | 22.68526 | 39.49690 | 21046 ft | 440 kts | 15° |
| 2026-04-29 20:22 | 22.71437 | 39.50825 | 21044 ft | 439 kts | 15° |
| 2026-04-29 20:22 | 22.74291 | 39.51927 | 21042 ft | 439 kts | 15° |
| 2026-04-29 20:23 | 22.77173 | 39.53038 | 21044 ft | 439 kts | 15° |
| 2026-04-29 20:23 | 22.80053 | 39.54150 | 21043 ft | 439 kts | 15° |
| 2026-04-29 20:23 | 22.82913 | 39.55257 | 21044 ft | 440 kts | 15° |
| 2026-04-29 20:23 | 22.85816 | 39.56380 | 21043 ft | 440 kts | 15° |
| 2026-04-29 20:24 | 22.88666 | 39.57483 | 21043 ft | 440 kts | 15° |
| 2026-04-29 20:24 | 22.91548 | 39.58600 | 21041 ft | 440 kts | 15° |
| 2026-04-29 20:24 | 22.94434 | 39.59720 | 21039 ft | 440 kts | 15° |
| 2026-04-29 20:24 | 22.97322 | 39.60840 | 21042 ft | 440 kts | 14° |
| 2026-04-29 20:25 | 23.00226 | 39.61786 | 21036 ft | 437 kts | 9° |
| 2026-04-29 20:25 | 23.03207 | 39.62435 | 21042 ft | 433 kts | 4° |
| 2026-04-29 20:25 | 23.06181 | 39.62773 | 21045 ft | 430 kts | 359° |
| 2026-04-29 20:25 | 23.09178 | 39.62952 | 21045 ft | 429 kts | 358° |
| 2026-04-29 20:26 | 23.12166 | 39.63099 | 21044 ft | 429 kts | 358° |
| 2026-04-29 20:26 | 23.15119 | 39.63243 | 21044 ft | 429 kts | 357° |
| 2026-04-29 20:26 | 23.18126 | 39.63389 | 21046 ft | 433 kts | 358° |
| 2026-04-29 20:26 | 23.21165 | 39.63540 | 21045 ft | 437 kts | 358° |
| 2026-04-29 20:27 | 23.24174 | 39.63693 | 21045 ft | 437 kts | 358° |
| 2026-04-29 20:27 | 23.26229 | 39.63799 | 21056 ft | 438 kts | 358° |
| 2026-04-29 20:27 | 23.30291 | 39.64010 | 21035 ft | 437 kts | 358° |
| 2026-04-29 20:27 | 23.33336 | 39.64169 | 21040 ft | 438 kts | 358° |
| 2026-04-29 20:28 | 23.36354 | 39.64326 | 21042 ft | 438 kts | 357° |
| 2026-04-29 20:28 | 23.39399 | 39.64485 | 21051 ft | 438 kts | 357° |
| 2026-04-29 20:28 | 23.42448 | 39.64642 | 21023 ft | 438 kts | 357° |
| 2026-04-29 20:28 | 23.45497 | 39.64799 | 20776 ft | 436 kts | 358° |
| 2026-04-29 20:29 | 23.48485 | 39.64957 | 20517 ft | 434 kts | 357° |
| 2026-04-29 20:29 | 23.51496 | 39.65116 | 20273 ft | 432 kts | 357° |
| 2026-04-29 20:29 | 23.54504 | 39.65272 | 20011 ft | 430 kts | 357° |
| 2026-04-29 20:29 | 23.57510 | 39.65429 | 19745 ft | 427 kts | 358° |
| 2026-04-29 20:30 | 23.60444 | 39.65578 | 19520 ft | 425 kts | 358° |
| 2026-04-29 20:30 | 23.63410 | 39.65732 | 19254 ft | 424 kts | 358° |
| 2026-04-29 20:30 | 23.66366 | 39.65889 | 18998 ft | 422 kts | 358° |
| 2026-04-29 20:30 | 23.69257 | 39.66226 | 18745 ft | 424 kts | 4° |
| 2026-04-29 20:31 | 23.72158 | 39.66858 | 18502 ft | 425 kts | 9° |
| 2026-04-29 20:31 | 23.75016 | 39.67784 | 18243 ft | 427 kts | 14° |
| 2026-04-29 20:31 | 23.77768 | 39.68911 | 17987 ft | 426 kts | 16° |
| 2026-04-29 20:31 | 23.80519 | 39.70093 | 17741 ft | 424 kts | 17° |
| 2026-04-29 20:32 | 23.83302 | 39.71299 | 17480 ft | 423 kts | 17° |
| 2026-04-29 20:32 | 23.86014 | 39.72472 | 17224 ft | 422 kts | 17° |
| 2026-04-29 20:32 | 23.88760 | 39.73657 | 16963 ft | 421 kts | 17° |
| 2026-04-29 20:32 | 23.91489 | 39.74833 | 16736 ft | 420 kts | 17° |
| 2026-04-29 20:33 | 23.94188 | 39.75995 | 16478 ft | 419 kts | 17° |
| 2026-04-29 20:33 | 23.96888 | 39.77159 | 16164 ft | 412 kts | 18° |
| 2026-04-29 20:33 | 23.99516 | 39.78290 | 15814 ft | 403 kts | 18° |
| 2026-04-29 20:33 | 24.02105 | 39.79403 | 15459 ft | 395 kts | 18° |
| 2026-04-29 20:34 | 24.04641 | 39.80493 | 15109 ft | 387 kts | 18° |
| 2026-04-29 20:34 | 24.07126 | 39.81561 | 14768 ft | 380 kts | 18° |
| 2026-04-29 20:34 | 24.09547 | 39.82602 | 14445 ft | 373 kts | 18° |
| 2026-04-29 20:34 | 24.11943 | 39.83632 | 14113 ft | 366 kts | 18° |
| 2026-04-29 20:35 | 24.14296 | 39.84645 | 13784 ft | 360 kts | 19° |
| 2026-04-29 20:35 | 24.16612 | 39.85644 | 13466 ft | 354 kts | 19° |
| 2026-04-29 20:35 | 24.18867 | 39.86617 | 13145 ft | 348 kts | 19° |
| 2026-04-29 20:35 | 24.21117 | 39.87588 | 12831 ft | 342 kts | 19° |
| 2026-04-29 20:36 | 24.23378 | 39.88299 | 12514 ft | 333 kts | 5° |
| 2026-04-29 20:36 | 24.25644 | 39.88294 | 12213 ft | 323 kts | 349° |
| 2026-04-29 20:36 | 24.27837 | 39.87871 | 11925 ft | 317 kts | 346° |
| 2026-04-29 20:36 | 24.29999 | 39.87386 | 11644 ft | 312 kts | 345° |
| 2026-04-29 20:37 | 24.32085 | 39.86918 | 11351 ft | 307 kts | 345° |
| 2026-04-29 20:37 | 24.34159 | 39.86463 | 11091 ft | 301 kts | 346° |
| 2026-04-29 20:37 | 24.36182 | 39.86029 | 10984 ft | 289 kts | 346° |
| 2026-04-29 20:37 | 24.38129 | 39.85618 | 10983 ft | 281 kts | 346° |
| 2026-04-29 20:38 | 24.40044 | 39.85214 | 10981 ft | 281 kts | 346° |
| 2026-04-29 20:38 | 24.41974 | 39.84808 | 10985 ft | 281 kts | 346° |
| 2026-04-29 20:38 | 24.43896 | 39.84403 | 10984 ft | 281 kts | 346° |
| 2026-04-29 20:38 | 24.45817 | 39.84000 | 10986 ft | 281 kts | 346° |
| 2026-04-29 20:39 | 24.47721 | 39.83596 | 10824 ft | 276 kts | 346° |
| 2026-04-29 20:39 | 24.49598 | 39.83190 | 10417 ft | 277 kts | 346° |
| 2026-04-29 20:39 | 24.51493 | 39.82780 | 10072 ft | 276 kts | 346° |
| 2026-04-29 20:39 | 24.53373 | 39.82375 | 9812 ft | 269 kts | 346° |
| 2026-04-29 20:40 | 24.55158 | 39.81992 | 9599 ft | 259 kts | 346° |
| 2026-04-29 20:40 | 24.56894 | 39.81620 | 9452 ft | 249 kts | 346° |
| 2026-04-29 20:40 | 24.58578 | 39.81262 | 9289 ft | 241 kts | 347° |
| 2026-04-29 20:40 | 24.60185 | 39.80923 | 9113 ft | 234 kts | 347° |
| 2026-04-29 20:41 | 24.61786 | 39.80584 | 8802 ft | 232 kts | 347° |
| 2026-04-29 20:41 | 24.63333 | 39.80256 | 8608 ft | 224 kts | 347° |
| 2026-04-29 20:41 | 24.64839 | 39.79937 | 8431 ft | 215 kts | 347° |
| 2026-04-29 20:41 | 24.66281 | 39.79632 | 8250 ft | 208 kts | 347° |
| 2026-04-29 20:42 | 24.67691 | 39.79334 | 8037 ft | 203 kts | 346° |
| 2026-04-29 20:42 | 24.69082 | 39.79038 | 7731 ft | 203 kts | 346° |
| 2026-04-29 20:42 | 24.70429 | 39.78750 | 7540 ft | 196 kts | 346° |
| 2026-04-29 20:42 | 24.71763 | 39.78467 | 7286 ft | 193 kts | 347° |
| 2026-04-29 20:43 | 24.73074 | 39.78188 | 6981 ft | 192 kts | 347° |
| 2026-04-29 20:43 | 24.74384 | 39.77908 | 6692 ft | 191 kts | 347° |
| 2026-04-29 20:43 | 24.75678 | 39.77630 | 6407 ft | 190 kts | 343° |
| 2026-04-29 20:43 | 24.76772 | 39.76911 | 6078 ft | 185 kts | 301° |
| 2026-04-29 20:44 | 24.77069 | 39.75562 | 5754 ft | 183 kts | 264° |
| 2026-04-29 20:44 | 24.76675 | 39.74246 | 5473 ft | 182 kts | 246° |
| 2026-04-29 20:44 | 24.76142 | 39.72976 | 5294 ft | 181 kts | 245° |
| 2026-04-29 20:44 | 24.75607 | 39.71709 | 5298 ft | 183 kts | 245° |
| 2026-04-29 20:45 | 24.75082 | 39.70430 | 5294 ft | 183 kts | 246° |
| 2026-04-29 20:45 | 24.74568 | 39.69148 | 5288 ft | 183 kts | 246° |
| 2026-04-29 20:45 | 24.73980 | 39.67921 | 5278 ft | 183 kts | 227° |
| 2026-04-29 20:45 | 24.72882 | 39.67228 | 5280 ft | 186 kts | 192° |
| 2026-04-29 20:46 | 24.71587 | 39.67305 | 5300 ft | 188 kts | 173° |
| 2026-04-29 20:46 | 24.70308 | 39.67571 | 5083 ft | 185 kts | 170° |
| 2026-04-29 20:46 | 24.69065 | 39.67854 | 4751 ft | 180 kts | 170° |
| 2026-04-29 20:46 | 24.67857 | 39.68125 | 4417 ft | 174 kts | 170° |
| 2026-04-29 20:47 | 24.66690 | 39.68381 | 4080 ft | 167 kts | 170° |
| 2026-04-29 20:47 | 24.65569 | 39.68623 | 3741 ft | 161 kts | 170° |
| 2026-04-29 20:47 | 24.64483 | 39.68857 | 3462 ft | 159 kts | 169° |
| 2026-04-29 20:47 | 24.63765 | 39.69024 | 3323 ft | 159 kts | 169° |
| 2026-04-29 20:48 | 24.62320 | 39.69330 | 3050 ft | 159 kts | 170° |
| 2026-04-29 20:48 | 24.61233 | 39.69571 | 2825 ft | 158 kts | 169° |
| 2026-04-29 20:48 | 24.60170 | 39.69804 | 2650 ft | 158 kts | 170° |
| 2026-04-29 20:48 | 24.59084 | 39.70025 | 2461 ft | 157 kts | 169° |
| 2026-04-29 20:49 | 24.58011 | 39.70259 | 2237 ft | 157 kts | 170° |
| 2026-04-29 20:49 | 24.56957 | 39.70480 | 2120 ft | 144 kts | 169° |
| 2026-04-29 20:49 | 24.56121 | 39.70658 | 2123 ft | 94 kts | 168° |
| 2026-04-29 20:49 | 24.55620 | 39.70764 | 2117 ft | 61 kts | 169° |
| 2026-04-29 20:50 | 24.55222 | 39.70846 | 2119 ft | 56 kts | 168° |
| 2026-04-29 20:50 | 24.54878 | 39.70922 | 2123 ft | 42 kts | 169° |
| 2026-04-29 20:50 | 24.54663 | 39.70940 | 2122 ft | 26 kts | 184° |
| 2026-04-29 20:50 | 24.54509 | 39.70887 | 2119 ft | 21 kts | 214° |
| 2026-04-29 20:51 | 24.54450 | 39.70752 | 2115 ft | 22 kts | 269° |
| 2026-04-29 20:51 | 24.54457 | 39.70573 | 2114 ft | 24 kts | 275° |
| 2026-04-29 20:51 | 24.54470 | 39.70380 | 2116 ft | 25 kts | 274° |
| 2026-04-29 20:51 | 24.54477 | 39.70250 | 2122 ft | 12 kts | 274° |
| 2026-04-29 20:52 | 24.54489 | 39.70186 | 2118 ft | 10 kts | 304° |
| 2026-04-29 20:52 | 24.54564 | 39.70136 | 2115 ft | 15 kts | 333° |
| 2026-04-29 20:52 | 24.54633 | 39.70098 | 2115 ft | 18 kts | 333° |
| 2026-04-29 20:52 | 24.54779 | 39.70015 | 2113 ft | 11 kts | 330° |
| 2026-04-29 20:53 | 24.54788 | 39.70009 | 2113 ft | 0 kts | 330° |
| 2026-04-29 20:53 | 24.54793 | 39.70006 | 2113 ft | 2 kts | 330° |
| 2026-04-29 20:53 | 24.54807 | 39.69997 | 2113 ft | 4 kts | 327° |
| 2026-04-29 20:53 | 24.54806 | 39.69960 | 2113 ft | 6 kts | 242° |
| 2026-04-29 20:54 | 24.54775 | 39.69905 | 2113 ft | 2 kts | 240° |
| 2026-04-29 20:54 | 24.54773 | 39.69901 | 2114 ft | 1 kts | 240° |
| 2026-04-29 20:54 | 24.54768 | 39.69893 | 2113 ft | 1 kts | 240° |
| 2026-04-29 20:55 | 24.54767 | 39.69890 | 2113 ft | 0 kts | 240° |